地図

経路データ

SID SEASON NUMBER BASIN SUBBASIN NAME ISO_TIME NATURE LAT LON WMO_WIND WMO_PRES WMO_AGENCY TRACK_TYPE DIST2LAND LANDFALL IFLAG USA_AGENCY USA_ATCF_ID USA_LAT USA_LON USA_RECORD USA_STATUS USA_WIND USA_PRES USA_SSHS USA_R34_NE USA_R34_SE USA_R34_SW USA_R34_NW USA_R50_NE USA_R50_SE USA_R50_SW USA_R50_NW USA_R64_NE USA_R64_SE USA_R64_SW USA_R64_NW USA_POCI USA_ROCI USA_RMW USA_EYE TOKYO_LAT TOKYO_LON TOKYO_GRADE TOKYO_WIND TOKYO_PRES TOKYO_R50_DIR TOKYO_R50_LONG TOKYO_R50_SHORT TOKYO_R30_DIR TOKYO_R30_LONG TOKYO_R30_SHORT TOKYO_LAND CMA_LAT CMA_LON CMA_CAT CMA_WIND CMA_PRES HKO_LAT HKO_LON HKO_CAT HKO_WIND HKO_PRES NEWDELHI_LAT NEWDELHI_LON NEWDELHI_GRADE NEWDELHI_WIND NEWDELHI_PRES NEWDELHI_CI NEWDELHI_DP NEWDELHI_POCI REUNION_LAT REUNION_LON REUNION_TYPE REUNION_WIND REUNION_PRES REUNION_TNUM REUNION_CI REUNION_RMW REUNION_R34_NE REUNION_R34_SE REUNION_R34_SW REUNION_R34_NW REUNION_R50_NE REUNION_R50_SE REUNION_R50_SW REUNION_R50_NW REUNION_R64_NE REUNION_R64_SE REUNION_R64_SW REUNION_R64_NW BOM_LAT BOM_LON BOM_TYPE BOM_WIND BOM_PRES BOM_TNUM BOM_CI BOM_RMW BOM_R34_NE BOM_R34_SE BOM_R34_SW BOM_R34_NW BOM_R50_NE BOM_R50_SE BOM_R50_SW BOM_R50_NW BOM_R64_NE BOM_R64_SE BOM_R64_SW BOM_R64_NW BOM_ROCI BOM_POCI BOM_EYE BOM_POS_METHOD BOM_PRES_METHOD NADI_LAT NADI_LON NADI_CAT NADI_WIND NADI_PRES WELLINGTON_LAT WELLINGTON_LON WELLINGTON_WIND WELLINGTON_PRES DS824_LAT DS824_LON DS824_STAGE DS824_WIND DS824_PRES TD9636_LAT TD9636_LON TD9636_STAGE TD9636_WIND TD9636_PRES TD9635_LAT TD9635_LON TD9635_WIND TD9635_PRES TD9635_ROCI NEUMANN_LAT NEUMANN_LON NEUMANN_CLASS NEUMANN_WIND NEUMANN_PRES MLC_LAT MLC_LON MLC_CLASS MLC_WIND MLC_PRES USA_GUST BOM_GUST BOM_GUST_PER REUNION_GUST REUNION_GUST_PER USA_SEAHGT USA_SEARAD_NE USA_SEARAD_SE USA_SEARAD_SW USA_SEARAD_NW STORM_SPEED STORM_DIR
1999225N12247 1999 60 EP MM NOT_NAMED 1999-08-12 18:00:00 NR 12.4000 -113.300 main 1182 1182 O_____________ jtwc_ep EP091999 12.4000 -113.300 20 -1 9 297
1999225N12247 1999 60 EP MM NOT_NAMED 1999-08-12 21:00:00 NR 12.6052 -113.707 main 1198 1198 P_____________ EP091999 12.6026 -113.702 20 -1 9 297
1999225N12247 1999 60 EP MM NOT_NAMED 1999-08-13 00:00:00 NR 12.8000 -114.100 main 1210 1201 O_____________ jtwc_ep EP091999 12.8000 -114.100 20 -1 8 297
1999225N12247 1999 60 EP MM NOT_NAMED 1999-08-13 03:00:00 NR 12.9848 -114.478 main 1205 1197 P_____________ EP091999 12.9924 -114.493 20 -1 9 297
1999225N12247 1999 60 EP MM NOT_NAMED 1999-08-13 06:00:00 NR 13.2000 -114.900 main 1202 1196 O_____________ jtwc_ep EP091999 13.2000 -114.900 20 -1 11 299
1999225N12247 1999 60 EP MM NOT_NAMED 1999-08-13 09:00:00 NR 13.5001 -115.442 main 1196 1191 P_____________ EP091999 13.4423 -115.320 22 -1 12 299
1999225N12247 1999 60 EP MM NOT_NAMED 1999-08-13 12:00:00 TS 13.7667 -115.933 25 hurdat_epa main 1192 1192 O_____________ hurdat_epa EP091999 13.7000 -115.800 TD 25 -1 11 296
1999225N12247 1999 60 EP MM NOT_NAMED 1999-08-13 15:00:00 TS 13.9814 -116.448 main 1202 1202 P_____________ EP091999 13.9501 -116.393 TD 27 -1 11 294
1999225N12247 1999 60 EP MM NOT_NAMED 1999-08-13 18:00:00 TS 14.2000 -116.960 30 hurdat_epa main 1220 1218 O_____________ hurdat_epa EP091999 14.2000 -117.000 TD 30 -1 11 296
1999225N12247 1999 60 EP MM NOT_NAMED 1999-08-13 21:00:00 TS 14.4416 -117.440 main 1229 1227 P_____________ EP091999 14.4800 -117.552 TD 30 -1 10 297
1999225N12247 1999 60 EP MM NOT_NAMED 1999-08-14 00:00:00 TS 14.6333 -117.833 30 hurdat_epa main 1238 1237 O_____________ hurdat_epa EP091999 14.7000 -118.000 TD 30 -1 7 293
1999225N12247 1999 60 EP MM NOT_NAMED 1999-08-14 03:00:00 TS 14.7249 -118.139 main 1251 1251 P_____________ EP091999 14.7798 -118.288 TD 30 -1 6 284
1999225N12247 1999 60 EP MM NOT_NAMED 1999-08-14 06:00:00 TS 14.7667 -118.400 30 hurdat_epa main 1265 1265 O_____________ hurdat_epa EP091999 14.8000 -118.500 TD 30 -1 5 279
1999225N12247 1999 60 EP MM NOT_NAMED 1999-08-14 09:00:00 TS 14.8066 -118.686 main 1287 1287 P_____________ EP091999 14.8350 -118.750 TD 30 -1 6 280
1999225N12247 1999 60 EP MM NOT_NAMED 1999-08-14 12:00:00 TS 14.8667 -118.967 30 hurdat_epa main 1302 1302 O_____________ hurdat_epa EP091999 14.9000 -119.000 TD 30 -1 6 288
1999225N12247 1999 60 EP MM NOT_NAMED 1999-08-14 15:00:00 TS 14.9800 -119.238 main 1309 1309 P_____________ EP091999 15.0350 -119.250 TD 27 -1 6 298
1999225N12247 1999 60 EP MM NOT_NAMED 1999-08-14 18:00:00 TS 15.1455 -119.500 25 hurdat_epa main 1322 1310 O_____________ hurdat_epa EP091999 15.2000 -119.500 TD 25 -1 6 307
1999225N12247 1999 60 EP MM NOT_NAMED 1999-08-14 21:00:00 TS 15.3364 -119.733 main 1316 1311 P_____________ EP091999 15.3649 -119.728 TD 25 -1 6 306
1999225N12247 1999 60 EP MM NOT_NAMED 1999-08-15 00:00:00 TS 15.5000 -120.000 25 hurdat_epa main 1317 1317 O_____________ hurdat_epa EP091999 15.5000 -120.000 TD 25 -1 7 291
1999225N12247 1999 60 EP MM NOT_NAMED 1999-08-15 03:00:00 TS 15.5702 -120.370 main 1335 1335 P_____________ EP091999 15.5702 -120.370 TD 25 -1 8 277
1999225N12247 1999 60 EP MM NOT_NAMED 1999-08-15 06:00:00 TS 15.6000 -120.800 25 hurdat_epa main 1363 O_____________ hurdat_epa EP091999 15.6000 -120.800 TD 25 -1 8 274

IBTrACS Databaseについて

本データベースは、米国NOAAが公開する1842年以降の世界の熱帯低気圧のベストトラックデータアーカイブInternational Best Track Archive for Climate Stewardship (IBTrACS)を、ウェブで閲覧しやすい形式に変換したものです。

最終更新日:2021-11-26